Time;durP1;ratioP1;P1;durP2;ratioP2;P2;SDS_P1;SDS_P2;PMS_P1;PMS_P2;Temp;Humidity;BMP_temperature;BMP_pressure;BME280_temperature;BME280_humidity;BME280_pressure;Samples;Min_cycle;Max_cycle;Signal;HPM_P1;HPM_P2
2023/06/04 00:01:31;;;;;;;2.97;1.50;;;25.90;79.30;;;;;;6102818;23;20202;-94
2023/06/04 00:04:03;;;;;;;2.00;1.30;;;25.80;81.30;;;;;;6105704;23;20479;-93
2023/06/04 00:06:35;;;;;;;3.17;1.50;;;26.00;84.40;;;;;;6079032;23;20188;-93
2023/06/04 00:09:07;;;;;;;2.87;1.50;;;26.10;82.90;;;;;;6103605;23;20190;-93
2023/06/04 00:11:41;;;;;;;5.77;1.70;;;25.60;80.80;;;;;;6104176;23;20175;-93
2023/06/04 00:14:13;;;;;;;1.70;1.30;;;25.60;84.70;;;;;;6101917;23;20681;-93
2023/06/04 00:16:44;;;;;;;2.53;1.93;;;25.60;87.40;;;;;;6103607;23;20209;-94
2023/06/04 00:19:17;;;;;;;5.20;1.60;;;25.30;85.30;;;;;;6100611;23;20182;-93
2023/06/04 00:21:49;;;;;;;1.83;1.40;;;25.00;87.00;;;;;;6102403;23;20262;-92
2023/06/04 00:24:20;;;;;;;3.33;1.50;;;25.20;85.30;;;;;;6102285;23;20175;-93
2023/06/04 00:26:54;;;;;;;3.33;1.20;;;25.50;82.30;;;;;;6102841;23;20205;-92
2023/06/04 00:29:26;;;;;;;2.23;1.50;;;25.60;84.30;;;;;;6102411;23;20492;-92
2023/06/04 00:31:57;;;;;;;4.13;1.60;;;25.60;86.80;;;;;;6105285;23;20246;-93
2023/06/04 00:34:30;;;;;;;6.00;1.50;;;25.80;86.60;;;;;;6110527;23;20213;-92
2023/06/04 00:37:02;;;;;;;2.20;1.43;;;25.80;88.30;;;;;;6121300;23;20190;-93
2023/06/04 00:39:34;;;;;;;2.23;1.50;;;25.40;86.50;;;;;;6120100;23;20206;-93
2023/06/04 00:42:09;;;;;;;3.27;1.50;;;25.40;86.90;;;;;;6111063;23;20171;-92
2023/06/04 00:44:43;;;;;;;1.37;1.20;;;25.40;88.10;;;;;;6105222;23;20253;-95
2023/06/04 00:47:15;;;;;;;1.83;1.50;;;25.40;86.70;;;;;;6104811;23;20202;-93
2023/06/04 00:49:47;;;;;;;1.70;1.60;;;25.70;87.60;;;;;;6105615;23;20175;-93
2023/06/04 00:52:20;;;;;;;2.80;1.40;;;26.20;88.70;;;;;;6106523;23;20250;-93
2023/06/04 00:54:51;;;;;;;5.57;1.50;;;26.50;90.00;;;;;;6108530;23;20190;-94
2023/06/04 00:57:25;;;;;;;3.50;1.43;;;27.00;90.50;;;;;;6109153;23;20281;-93
2023/06/04 00:59:57;;;;;;;5.83;1.27;;;27.30;90.70;;;;;;6107367;23;20182;-92
2023/06/04 01:02:35;;;;;;;2.37;1.33;;;27.60;90.50;;;;;;6104831;23;20760;-92
2023/06/04 01:05:16;;;;;;;3.70;1.40;;;27.60;89.70;;;;;;6104434;23;20179;-92
2023/06/04 01:07:49;;;;;;;6.33;1.30;;;27.90;90.00;;;;;;6101549;23;20622;-93
2023/06/04 01:10:23;;;;;;;3.40;1.27;;;27.80;89.20;;;;;;6104446;23;20194;-93
2023/06/04 01:12:58;;;;;;;2.43;1.40;;;27.40;89.50;;;;;;6101470;23;20186;-94
2023/06/04 01:15:30;;;;;;;2.87;1.83;;;27.10;90.10;;;;;;6101231;23;20185;-93
2023/06/04 01:18:05;;;;;;;1.83;1.10;;;27.30;90.60;;;;;;6100999;23;20262;-94
2023/06/04 01:20:41;;;;;;;2.67;1.23;;;27.40;90.10;;;;;;6101173;23;20182;-94
2023/06/04 01:23:34;;;;;;;2.53;1.30;;;27.20;90.00;;;;;;6102587;23;20183;-93
2023/06/04 01:26:06;;;;;;;2.53;1.30;;;27.00;90.00;;;;;;6102378;23;20202;-93
2023/06/04 01:28:41;;;;;;;2.10;1.03;;;26.80;90.80;;;;;;6101505;23;20223;-93
2023/06/04 01:31:15;;;;;;;2.37;1.13;;;27.00;90.60;;;;;;6102170;23;20182;-92
2023/06/04 01:33:57;;;;;;;1.33;1.07;;;27.00;90.60;;;;;;6101986;23;20613;-93
2023/06/04 01:36:29;;;;;;;3.37;1.20;;;27.00;91.00;;;;;;6102055;23;20270;-93
2023/06/04 01:39:02;;;;;;;1.60;1.23;;;27.10;90.60;;;;;;6105718;23;20226;-93
2023/06/04 01:41:33;;;;;;;2.43;1.00;;;26.70;90.60;;;;;;6103319;23;20265;-94
2023/06/04 01:44:11;;;;;;;1.70;1.10;;;26.30;91.40;;;;;;6103803;23;20231;-92
2023/06/04 01:46:44;;;;;;;1.73;0.90;;;26.30;90.90;;;;;;6102394;23;20221;-94
2023/06/04 01:49:15;;;;;;;1.80;1.07;;;26.30;91.00;;;;;;6099617;23;20242;-94
2023/06/04 01:51:47;;;;;;;2.93;0.90;;;26.20;90.90;;;;;;6099984;23;20175;-94
2023/06/04 01:54:18;;;;;;;1.73;1.00;;;26.30;91.40;;;;;;6076716;23;20179;-94
2023/06/04 01:56:50;;;;;;;1.93;1.10;;;26.50;91.20;;;;;;6101944;23;20294;-93
2023/06/04 01:59:24;;;;;;;3.67;1.17;;;26.10;90.90;;;;;;6100182;23;20266;-94
2023/06/04 02:01:56;;;;;;;2.33;0.90;;;25.60;91.60;;;;;;6100485;23;20170;-93
2023/06/04 02:04:28;;;;;;;2.50;1.00;;;25.00;92.30;;;;;;6099755;23;20183;-93
2023/06/04 02:07:00;;;;;;;1.50;1.10;;;24.40;92.80;;;;;;6101041;23;20183;-94
2023/06/04 02:09:33;;;;;;;2.60;1.10;;;23.90;93.60;;;;;;6101143;23;20175;-94
2023/06/04 02:12:05;;;;;;;4.70;1.20;;;23.50;94.20;;;;;;6100948;23;20622;-95
2023/06/04 02:14:39;;;;;;;1.33;0.93;;;23.30;94.90;;;;;;6076537;23;20183;-94
2023/06/04 02:17:12;;;;;;;4.07;0.93;;;23.00;95.20;;;;;;6100916;23;20293;-94
2023/06/04 02:19:45;;;;;;;3.53;1.00;;;22.80;95.90;;;;;;6075103;23;20258;-94
2023/06/04 02:22:16;;;;;;;1.40;1.00;;;22.60;96.50;;;;;;6101396;23;20191;-95
2023/06/04 02:24:49;;;;;;;2.23;1.20;;;22.30;96.80;;;;;;6102835;23;20181;-95
2023/06/04 02:27:20;;;;;;;1.47;1.20;;;22.00;97.20;;;;;;6102991;23;20262;-94
2023/06/04 02:29:54;;;;;;;1.03;0.90;;;21.90;96.90;;;;;;6100817;23;20179;-93
2023/06/04 02:32:26;;;;;;;1.53;1.00;;;21.60;97.20;;;;;;6103413;23;20253;-96
2023/06/04 02:34:59;;;;;;;2.80;0.90;;;21.30;97.40;;;;;;6104781;23;20168;-95
2023/06/04 02:37:31;;;;;;;3.83;1.10;;;21.00;97.80;;;;;;6104153;23;20261;-93
2023/06/04 02:40:03;;;;;;;1.77;1.20;;;20.70;98.40;;;;;;6104280;23;20183;-94
2023/06/04 02:42:35;;;;;;;3.07;1.07;;;20.60;99.00;;;;;;6105973;23;20195;-95
2023/06/04 02:45:12;;;;;;;3.03;1.00;;;20.40;99.40;;;;;;6106750;23;20180;-94
2023/06/04 02:47:43;;;;;;;2.60;1.00;;;20.40;99.90;;;;;;6105308;23;20242;-96
2023/06/04 02:50:21;;;;;;;6.37;1.30;;;20.20;99.90;;;;;;6111963;23;20178;-93
2023/06/04 02:52:53;;;;;;;2.10;1.40;;;20.00;99.90;;;;;;6112605;23;20221;-94
2023/06/04 02:55:26;;;;;;;1.10;0.80;;;19.90;99.90;;;;;;6113989;23;20167;-94
2023/06/04 02:57:58;;;;;;;3.07;1.33;;;19.60;99.90;;;;;;6123600;23;20235;-94
2023/06/04 03:00:33;;;;;;;2.73;1.10;;;19.40;99.90;;;;;;6122741;23;20186;-94
2023/06/04 03:03:06;;;;;;;2.30;1.13;;;19.20;99.90;;;;;;6111462;23;20238;-95
2023/06/04 03:05:39;;;;;;;2.53;1.17;;;19.10;99.90;;;;;;6107009;23;20246;-95
2023/06/04 03:08:11;;;;;;;2.97;1.17;;;18.90;99.90;;;;;;6104635;23;20186;-94
2023/06/04 03:10:43;;;;;;;1.90;1.07;;;18.90;99.90;;;;;;6103842;23;20222;-95
2023/06/04 03:13:15;;;;;;;3.00;1.20;;;18.80;99.90;;;;;;6104733;23;20183;-93
2023/06/04 03:15:51;;;;;;;2.63;1.07;;;18.70;99.90;;;;;;6104657;23;20190;-94
2023/06/04 03:18:23;;;;;;;4.07;1.37;;;18.60;99.90;;;;;;6102924;23;20245;-93
2023/06/04 03:20:55;;;;;;;3.27;1.10;;;18.50;99.90;;;;;;6081926;23;20183;-92
2023/06/04 03:23:27;;;;;;;2.80;1.40;;;18.40;99.90;;;;;;6106145;23;20250;-93
2023/06/04 03:25:59;;;;;;;6.03;2.10;;;18.20;99.90;;;;;;6078818;23;20195;-93
2023/06/04 03:28:30;;;;;;;4.93;2.50;;;18.10;99.90;;;;;;6105348;23;20199;-95
2023/06/04 03:31:04;;;;;;;3.00;1.40;;;17.90;99.90;;;;;;6107130;23;20563;-93
2023/06/04 03:33:38;;;;;;;4.53;1.20;;;17.70;99.90;;;;;;6105623;23;20181;-94
2023/06/04 03:36:11;;;;;;;3.27;1.30;;;17.60;99.90;;;;;;6110221;23;20191;-93
2023/06/04 03:38:42;;;;;;;2.20;1.27;;;17.50;99.90;;;;;;6121418;23;20254;-95
2023/06/04 03:41:16;;;;;;;3.87;1.40;;;17.40;99.90;;;;;;6122416;23;20152;-94
2023/06/04 03:43:52;;;;;;;2.23;1.10;;;17.30;99.90;;;;;;6119832;23;20183;-94
2023/06/04 03:46:31;;;;;;;4.43;1.50;;;17.20;99.90;;;;;;6085029;23;20530;-93
2023/06/04 03:49:04;;;;;;;2.13;1.10;;;17.10;99.90;;;;;;6106966;23;20175;-93
2023/06/04 03:51:36;;;;;;;8.00;1.53;;;16.90;99.90;;;;;;6106273;23;20257;-94
2023/06/04 03:54:08;;;;;;;2.50;1.10;;;16.80;99.90;;;;;;6103684;23;20194;-93
2023/06/04 03:56:40;;;;;;;5.77;1.40;;;16.70;99.90;;;;;;6102628;23;20243;-94
2023/06/04 03:59:12;;;;;;;5.43;1.60;;;16.60;99.90;;;;;;6102443;23;20213;-92
2023/06/04 04:01:46;;;;;;;1.80;1.10;;;16.50;99.90;;;;;;6103101;23;20630;-94
2023/06/04 04:04:18;;;;;;;2.53;1.53;;;16.50;99.90;;;;;;6103187;23;20253;-94
2023/06/04 04:06:51;;;;;;;2.83;1.50;;;16.40;99.90;;;;;;6080122;23;20179;-94
2023/06/04 04:09:23;;;;;;;4.80;1.70;;;16.30;99.90;;;;;;6105725;23;20179;-94
2023/06/04 04:11:56;;;;;;;4.87;1.70;;;16.20;99.90;;;;;;6110021;23;20203;-93
2023/06/04 04:14:28;;;;;;;6.43;1.90;;;16.20;99.90;;;;;;6116615;23;20220;-94
2023/06/04 04:17:01;;;;;;;5.20;1.87;;;15.90;99.90;;;;;;6107149;23;20242;-93
2023/06/04 04:19:33;;;;;;;3.87;1.73;;;15.90;99.90;;;;;;6104566;23;20581;-94
2023/06/04 04:22:06;;;;;;;6.13;1.77;;;15.70;99.90;;;;;;6104603;23;20626;-95
2023/06/04 04:24:39;;;;;;;5.97;1.90;;;15.70;99.90;;;;;;6103711;23;20187;-94
2023/06/04 04:27:11;;;;;;;3.30;1.57;;;15.70;99.90;;;;;;6103380;23;20179;-94
2023/06/04 04:29:47;;;;;;;6.00;1.97;;;15.50;99.90;;;;;;6102597;23;20181;-95
2023/06/04 04:32:22;;;;;;;7.23;1.53;;;15.40;99.90;;;;;;6100480;23;20178;-94
2023/06/04 04:34:54;;;;;;;6.33;2.60;;;15.40;99.90;;;;;;6099555;23;20182;-94
2023/06/04 04:37:26;;;;;;;5.43;2.07;;;15.30;99.90;;;;;;6105061;23;20267;-95
2023/06/04 04:39:58;;;;;;;8.27;2.00;;;15.10;99.90;;;;;;6102633;23;20211;-94
2023/06/04 04:42:30;;;;;;;7.23;2.20;;;15.00;99.90;;;;;;6076252;23;20179;-93
2023/06/04 04:45:01;;;;;;;7.57;2.30;;;14.90;99.90;;;;;;6076159;23;20182;-94
2023/06/04 04:47:34;;;;;;;6.77;2.40;;;14.80;99.90;;;;;;6101778;23;20186;-94
2023/06/04 04:50:07;;;;;;;7.70;2.20;;;14.80;99.90;;;;;;6100922;23;20183;-94
2023/06/04 04:52:38;;;;;;;4.60;1.90;;;14.70;99.90;;;;;;6102759;23;20167;-93
2023/06/04 04:55:11;;;;;;;6.10;2.20;;;14.70;99.90;;;;;;6102130;23;20171;-94
2023/06/04 04:57:46;;;;;;;6.13;1.90;;;14.50;99.90;;;;;;6104578;23;20183;-93
2023/06/04 05:00:19;;;;;;;5.90;2.43;;;14.40;99.90;;;;;;6081120;23;20182;-93
2023/06/04 05:02:55;;;;;;;6.80;2.17;;;14.30;99.90;;;;;;6106256;23;20189;-92
2023/06/04 05:05:26;;;;;;;4.40;1.53;;;14.30;99.90;;;;;;6105518;23;20187;-94
2023/06/04 05:07:59;;;;;;;9.73;2.37;;;14.10;99.90;;;;;;6109118;23;20183;-93
2023/06/04 05:10:31;;;;;;;6.53;2.10;;;14.10;99.90;;;;;;6095267;23;20171;-93
2023/06/04 05:13:04;;;;;;;6.30;2.17;;;14.00;99.90;;;;;;6122989;23;20175;-94
2023/06/04 05:15:39;;;;;;;7.83;1.80;;;13.80;99.90;;;;;;6118753;23;20235;-94
2023/06/04 05:18:15;;;;;;;7.17;2.00;;;13.80;99.90;;;;;;6105394;23;20188;-88
2023/06/04 05:20:47;;;;;;;11.20;2.10;;;13.70;99.90;;;;;;6105386;23;20253;-94
2023/06/04 05:23:20;;;;;;;6.77;1.90;;;13.60;99.90;;;;;;6079379;23;20186;-95
2023/06/04 05:25:52;;;;;;;9.23;2.13;;;13.60;99.90;;;;;;6105197;23;20182;-95
2023/06/04 05:28:25;;;;;;;5.43;1.70;;;13.60;99.90;;;;;;6075118;23;20219;-94
2023/06/04 05:30:58;;;;;;;7.37;1.97;;;13.50;99.90;;;;;;6076226;23;20199;-95
2023/06/04 05:33:34;;;;;;;8.00;2.40;;;13.40;99.90;;;;;;6102453;23;20175;-94
2023/06/04 05:36:06;;;;;;;5.10;2.00;;;13.30;99.90;;;;;;6102260;23;20545;-95
2023/06/04 05:38:38;;;;;;;7.77;1.90;;;13.30;99.90;;;;;;6100913;23;20209;-95
2023/06/04 05:41:09;;;;;;;9.90;1.90;;;13.20;99.90;;;;;;6100220;23;20171;-94
2023/06/04 05:43:44;;;;;;;8.03;2.00;;;13.20;99.90;;;;;;6099680;23;20179;-94
2023/06/04 05:46:15;;;;;;;7.27;2.00;;;13.10;99.90;;;;;;6101542;23;20261;-94
2023/06/04 05:48:49;;;;;;;5.80;2.00;;;13.10;99.90;;;;;;6101741;23;20186;-94
2023/06/04 05:51:20;;;;;;;5.13;1.80;;;13.10;99.90;;;;;;6079298;23;20191;-95
2023/06/04 05:53:51;;;;;;;5.90;1.80;;;13.10;99.90;;;;;;6103576;23;20179;-92
2023/06/04 05:56:24;;;;;;;7.00;2.17;;;13.00;99.90;;;;;;6103934;23;20231;-94
2023/06/04 05:58:55;;;;;;;6.77;2.00;;;13.00;99.90;;;;;;6103007;23;20230;-92
2023/06/04 06:01:27;;;;;;;8.50;2.37;;;12.90;99.90;;;;;;6102390;23;20186;-95
2023/06/04 06:04:01;;;;;;;8.10;1.87;;;12.90;99.90;;;;;;6079489;23;20207;-93
2023/06/04 06:06:39;;;;;;;8.63;2.00;;;12.90;99.90;;;;;;6104334;23;20661;-91
2023/06/04 06:09:10;;;;;;;6.13;1.80;;;12.90;99.90;;;;;;6103188;23;20210;-93
2023/06/04 06:11:42;;;;;;;9.13;2.07;;;12.80;99.90;;;;;;6101575;23;20254;-93
2023/06/04 06:14:13;;;;;;;8.73;2.17;;;12.70;99.90;;;;;;6098636;23;20167;-93
2023/06/04 06:16:45;;;;;;;9.37;2.30;;;12.70;99.90;;;;;;6104522;23;20186;-95
2023/06/04 06:19:19;;;;;;;8.43;2.00;;;12.70;99.90;;;;;;6078626;23;20267;-93
2023/06/04 06:21:51;;;;;;;6.87;2.17;;;12.70;99.90;;;;;;6103703;23;20183;-93
2023/06/04 06:24:23;;;;;;;6.90;2.27;;;12.70;99.90;;;;;;6103757;23;20614;-94
2023/06/04 06:26:54;;;;;;;8.57;2.13;;;12.60;99.90;;;;;;6103145;23;20564;-94
2023/06/04 06:29:27;;;;;;;9.53;2.13;;;12.60;99.90;;;;;;6101154;23;20271;-93
2023/06/04 06:31:58;;;;;;;5.40;1.53;;;12.60;99.90;;;;;;6099297;23;20178;-94
2023/06/04 06:34:31;;;;;;;8.03;2.10;;;12.50;99.90;;;;;;6098955;23;20183;-93
2023/06/04 06:37:03;;;;;;;8.20;1.83;;;12.60;99.90;;;;;;6103824;23;20191;-94
2023/06/04 06:39:34;;;;;;;5.53;1.60;;;12.60;99.90;;;;;;6101765;23;20210;-95
2023/06/04 06:42:05;;;;;;;7.37;1.70;;;12.60;99.90;;;;;;6099316;23;20194;-95
2023/06/04 06:44:36;;;;;;;6.53;2.10;;;12.60;99.90;;;;;;6098518;23;20194;-95
2023/06/04 06:47:08;;;;;;;7.57;2.13;;;12.50;99.90;;;;;;6102838;23;20179;-94
2023/06/04 06:49:44;;;;;;;8.13;2.07;;;12.50;99.90;;;;;;6103440;23;20569;-95
2023/06/04 06:52:19;;;;;;;10.50;2.30;;;12.40;99.90;;;;;;6099949;23;20167;-93
2023/06/04 06:54:52;;;;;;;8.33;2.40;;;12.40;99.90;;;;;;6100318;23;20167;-94
2023/06/04 06:57:24;;;;;;;8.90;2.10;;;12.40;99.90;;;;;;6104211;23;20197;-93
2023/06/04 06:59:56;;;;;;;11.40;2.13;;;12.30;99.90;;;;;;6103462;23;20206;-94
2023/06/04 07:02:28;;;;;;;6.87;1.90;;;12.30;99.90;;;;;;6104322;23;20203;-94
2023/06/04 07:05:02;;;;;;;8.50;2.20;;;12.40;99.90;;;;;;6104554;23;20255;-95
2023/06/04 07:07:34;;;;;;;9.00;2.33;;;12.20;99.90;;;;;;6104732;23;20513;-94
2023/06/04 07:10:07;;;;;;;8.00;2.17;;;12.20;99.90;;;;;;6102356;23;20263;-93
2023/06/04 07:12:39;;;;;;;8.00;2.27;;;12.20;99.90;;;;;;6100118;23;20205;-95
2023/06/04 07:15:13;;;;;;;9.00;2.33;;;12.20;99.90;;;;;;6099854;23;20627;-94
2023/06/04 07:17:44;;;;;;;8.83;2.00;;;12.20;99.90;;;;;;6098971;23;20522;-94
2023/06/04 07:20:18;;;;;;;8.57;2.33;;;12.20;99.90;;;;;;6101809;23;20213;-94
2023/06/04 07:22:51;;;;;;;5.50;2.20;;;12.10;99.90;;;;;;6113042;23;20198;-95
2023/06/04 07:25:23;;;;;;;9.20;3.13;;;12.10;99.90;;;;;;6121137;23;20194;-94
2023/06/04 07:27:57;;;;;;;10.63;2.23;;;12.10;99.90;;;;;;6117541;23;20262;-93
2023/06/04 07:30:29;;;;;;;9.90;2.20;;;12.10;99.90;;;;;;6103940;23;20183;-93
2023/06/04 07:33:00;;;;;;;12.83;2.77;;;12.10;99.90;;;;;;6100796;23;20866;-95
2023/06/04 07:35:35;;;;;;;10.40;2.67;;;12.10;99.90;;;;;;6099039;23;20226;-93
2023/06/04 07:38:07;;;;;;;7.73;2.13;;;12.10;99.90;;;;;;6103233;23;20198;-95
2023/06/04 07:40:39;;;;;;;8.53;2.37;;;12.00;99.90;;;;;;6100864;23;20287;-95
2023/06/04 07:43:11;;;;;;;12.23;2.60;;;12.00;99.90;;;;;;6101204;23;20205;-93
2023/06/04 07:45:43;;;;;;;8.77;2.17;;;11.90;99.90;;;;;;6102892;23;20231;-95
2023/06/04 07:48:14;;;;;;;4.73;1.77;;;11.90;99.90;;;;;;6104543;23;20195;-94
2023/06/04 07:50:48;;;;;;;8.80;1.90;;;11.80;99.90;;;;;;6104496;23;20195;-95
2023/06/04 07:53:20;;;;;;;8.90;2.27;;;11.80;99.90;;;;;;6105083;23;20626;-93
2023/06/04 07:55:52;;;;;;;9.17;2.27;;;11.80;99.90;;;;;;6103386;23;20179;-93
2023/06/04 07:58:25;;;;;;;8.10;2.30;;;11.80;99.90;;;;;;6099091;23;20258;-94
2023/06/04 08:00:57;;;;;;;6.13;2.07;;;11.70;99.90;;;;;;6100920;23;20297;-94
2023/06/04 08:03:28;;;;;;;8.37;2.07;;;11.70;99.90;;;;;;6100752;23;20168;-94
2023/06/04 08:06:02;;;;;;;6.37;2.40;;;11.70;99.90;;;;;;6100029;23;20250;-94
2023/06/04 08:08:34;;;;;;;8.43;2.30;;;11.70;99.90;;;;;;6099975;23;20179;-95
2023/06/04 08:11:06;;;;;;;10.17;2.10;;;11.70;99.90;;;;;;6100712;23;20171;-95
2023/06/04 08:13:38;;;;;;;6.97;2.00;;;11.50;99.90;;;;;;6077732;23;20199;-94
2023/06/04 08:16:10;;;;;;;9.27;2.07;;;11.50;99.90;;;;;;6101497;23;20176;-94
2023/06/04 08:18:45;;;;;;;8.97;2.07;;;11.50;99.90;;;;;;6098897;23;20183;-94
2023/06/04 08:21:28;;;;;;;8.67;2.67;;;11.50;99.90;;;;;;6100508;23;20234;-94
2023/06/04 08:23:59;;;;;;;8.60;2.00;;;11.40;99.90;;;;;;6099423;23;20195;-96
2023/06/04 08:26:32;;;;;;;8.27;2.13;;;11.50;99.90;;;;;;6079723;23;20175;-94
2023/06/04 08:29:05;;;;;;;5.97;1.90;;;11.40;99.90;;;;;;6105830;23;20174;-95
2023/06/04 08:31:39;;;;;;;6.90;1.70;;;11.40;99.90;;;;;;6106033;23;20506;-95
2023/06/04 08:34:10;;;;;;;9.20;2.23;;;11.40;99.90;;;;;;6105677;23;20524;-93
2023/06/04 08:36:46;;;;;;;4.43;1.60;;;11.50;99.90;;;;;;6101560;23;20179;-94
2023/06/04 08:39:18;;;;;;;7.47;1.97;;;11.40;99.90;;;;;;6099093;23;20185;-92
2023/06/04 08:41:54;;;;;;;10.33;2.20;;;11.40;99.90;;;;;;6103422;23;20262;-95
2023/06/04 08:44:26;;;;;;;5.53;1.87;;;11.30;99.90;;;;;;6105072;23;20171;-94
2023/06/04 08:47:05;;;;;;;6.40;1.97;;;11.30;99.90;;;;;;6101422;23;20179;-91
2023/06/04 08:49:38;;;;;;;6.57;1.97;;;11.30;99.90;;;;;;6099475;23;20183;-94
2023/06/04 08:52:13;;;;;;;8.03;2.03;;;11.20;99.90;;;;;;6100556;23;20263;-93
2023/06/04 08:54:45;;;;;;;7.03;1.73;;;11.10;99.90;;;;;;6100442;23;20181;-93
2023/06/04 08:57:16;;;;;;;7.73;2.07;;;11.10;99.90;;;;;;6103966;23;20529;-94
2023/06/04 08:59:49;;;;;;;9.23;2.40;;;11.10;99.90;;;;;;6078472;23;20175;-94
2023/06/04 09:02:20;;;;;;;4.50;1.50;;;11.10;99.90;;;;;;6106473;23;20203;-93
2023/06/04 09:04:52;;;;;;;5.83;1.70;;;11.00;99.90;;;;;;6108190;23;20179;-94
2023/06/04 09:07:27;;;;;;;7.07;1.80;;;11.00;99.90;;;;;;6117493;23;20190;-95
2023/06/04 09:10:00;;;;;;;4.43;1.67;;;11.00;99.90;;;;;;6118230;23;20194;-95
2023/06/04 09:12:45;;;;;;;5.23;1.67;;;11.00;99.90;;;;;;6117550;23;20175;-94
2023/06/04 09:15:17;;;;;;;7.20;2.07;;;11.00;99.90;;;;;;6117866;23;20194;-93
2023/06/04 09:17:48;;;;;;;9.80;2.00;;;10.90;99.90;;;;;;6116909;23;20171;-92
2023/06/04 09:20:23;;;;;;;8.27;1.80;;;10.90;99.90;;;;;;6104134;23;20250;-95
2023/06/04 09:22:58;;;;;;;7.30;1.73;;;10.90;99.90;;;;;;6101637;23;20171;-95
2023/06/04 09:25:30;;;;;;;10.57;2.10;;;10.90;99.90;;;;;;6101722;23;20623;-94
2023/06/04 09:28:08;;;;;;;4.57;1.73;;;11.00;99.90;;;;;;6099631;23;20619;-96
2023/06/04 09:30:40;;;;;;;6.87;1.70;;;10.90;99.90;;;;;;6102134;23;20195;-94
2023/06/04 09:33:12;;;;;;;6.70;1.57;;;10.80;99.90;;;;;;6112783;23;20202;-94
2023/06/04 09:35:55;;;;;;;13.53;2.00;;;10.60;99.90;;;;;;6120305;23;20183;-94
2023/06/04 09:38:36;;;;;;;7.17;1.73;;;10.70;99.90;;;;;;6119530;23;20182;-94
2023/06/04 09:41:14;;;;;;;9.67;2.03;;;10.70;99.90;;;;;;6107794;23;20203;-94
2023/06/04 09:43:47;;;;;;;5.53;1.50;;;10.60;99.90;;;;;;6080977;23;20553;-95
2023/06/04 09:46:19;;;;;;;7.03;1.70;;;10.60;99.90;;;;;;6102797;23;20186;-94
2023/06/04 09:49:01;;;;;;;9.10;1.90;;;10.60;99.90;;;;;;6100403;23;20179;-94
2023/06/04 09:51:33;;;;;;;8.57;1.57;;;10.50;99.90;;;;;;6100150;23;20238;-95
2023/06/04 09:54:12;;;;;;;9.97;2.10;;;10.50;99.90;;;;;;6100234;23;20204;-94
2023/06/04 09:56:44;;;;;;;10.33;2.30;;;10.50;99.90;;;;;;6100025;23;20207;-96
2023/06/04 09:59:17;;;;;;;5.00;1.93;;;10.50;99.90;;;;;;6098712;23;20195;-94
2023/06/04 10:01:50;;;;;;;11.17;2.17;;;10.50;99.90;;;;;;6099179;23;20199;-95
2023/06/04 10:04:21;;;;;;;5.30;1.60;;;10.40;99.90;;;;;;6098560;23;20186;-95
2023/06/04 10:06:55;;;;;;;7.97;1.90;;;10.40;99.90;;;;;;6106476;23;20183;-95
2023/06/04 10:09:30;;;;;;;7.70;1.77;;;10.40;99.90;;;;;;6106255;23;20172;-95
2023/06/04 10:12:04;;;;;;;7.77;1.80;;;10.40;99.90;;;;;;6100065;23;20178;-95
2023/06/04 10:14:41;;;;;;;6.03;1.90;;;10.40;99.90;;;;;;6099611;23;20199;-94
2023/06/04 10:17:14;;;;;;;7.50;1.83;;;10.40;99.90;;;;;;6098909;23;20179;-96
2023/06/04 10:19:47;;;;;;;6.97;1.70;;;10.40;99.90;;;;;;6097950;23;20190;-94
2023/06/04 10:22:19;;;;;;;5.67;1.70;;;10.40;99.90;;;;;;6106873;23;20227;-95
2023/06/04 10:24:53;;;;;;;8.33;1.80;;;10.30;99.90;;;;;;6102883;23;20179;-95
2023/06/04 10:27:25;;;;;;;9.20;2.10;;;10.40;99.90;;;;;;6099396;23;20636;-96
2023/06/04 10:29:58;;;;;;;8.17;1.80;;;10.30;99.90;;;;;;6097720;23;20183;-95
2023/06/04 10:32:31;;;;;;;12.93;2.67;;;10.30;99.90;;;;;;6098938;23;20206;-96
2023/06/04 10:35:07;;;;;;;4.97;1.40;;;10.20;99.90;;;;;;6099784;23;20183;-95
2023/06/04 10:37:39;;;;;;;8.50;1.93;;;10.20;99.90;;;;;;6097490;23;20249;-95
2023/06/04 10:40:14;;;;;;;6.90;1.83;;;10.20;99.90;;;;;;6098545;23;20181;-95
2023/06/04 10:42:46;;;;;;;8.87;1.90;;;10.20;99.90;;;;;;6073790;23;20202;-96
2023/06/04 10:45:17;;;;;;;6.17;1.70;;;10.10;99.90;;;;;;6099445;23;20253;-95
2023/06/04 10:47:49;;;;;;;8.63;1.53;;;10.20;99.90;;;;;;6102098;23;20199;-96
2023/06/04 10:50:21;;;;;;;5.40;1.60;;;10.20;99.90;;;;;;6076417;23;20522;-96
2023/06/04 10:52:57;;;;;;;6.43;1.73;;;10.30;99.90;;;;;;6098617;23;20694;-95
2023/06/04 10:55:30;;;;;;;7.63;1.67;;;10.30;99.90;;;;;;6075074;23;20199;-95
2023/06/04 10:58:03;;;;;;;9.23;1.90;;;10.40;99.90;;;;;;6097171;23;20182;-95
2023/06/04 11:00:39;;;;;;;10.30;1.70;;;10.50;99.90;;;;;;6098353;23;20175;-94
2023/06/04 11:03:12;;;;;;;13.20;2.00;;;10.40;99.90;;;;;;6098416;23;20756;-95
2023/06/04 11:05:45;;;;;;;7.70;1.80;;;10.50;99.90;;;;;;6097968;23;20241;-96
2023/06/04 11:08:28;;;;;;;6.70;1.80;;;10.60;99.90;;;;;;6097474;23;20226;-94
2023/06/04 11:11:12;;;;;;;11.43;2.20;;;10.60;99.90;;;;;;6100174;23;20249;-94
2023/06/04 11:13:44;;;;;;;8.50;1.73;;;10.50;99.90;;;;;;6100789;23;20175;-94
2023/06/04 11:16:18;;;;;;;8.77;1.87;;;10.50;99.90;;;;;;6100666;23;20226;-95
2023/06/04 11:18:58;;;;;;;8.23;1.80;;;10.60;99.90;;;;;;6098829;23;20532;-95
2023/06/04 11:21:31;;;;;;;6.43;2.00;;;10.70;99.90;;;;;;6100501;23;20258;-96
2023/06/04 11:24:02;;;;;;;10.77;2.10;;;10.70;99.90;;;;;;6100525;23;20187;-95
2023/06/04 11:26:37;;;;;;;7.50;1.97;;;10.60;99.90;;;;;;6100867;23;20702;-94
2023/06/04 11:29:16;;;;;;;8.23;1.60;;;10.60;99.90;;;;;;6100640;23;20234;-93
2023/06/04 11:31:48;;;;;;;14.27;2.53;;;10.60;99.90;;;;;;6077592;23;20195;-94
2023/06/04 11:34:25;;;;;;;8.83;1.83;;;10.60;99.90;;;;;;6102137;23;20202;-93
2023/06/04 11:36:57;;;;;;;7.20;1.63;;;10.70;99.90;;;;;;6100643;23;20198;-94
2023/06/04 11:39:38;;;;;;;8.93;2.00;;;10.60;99.90;;;;;;6101846;23;20195;-94
2023/06/04 11:42:12;;;;;;;6.87;2.10;;;10.70;99.90;;;;;;6102036;23;20285;-95
2023/06/04 11:44:48;;;;;;;6.33;1.80;;;10.80;99.90;;;;;;6093667;23;20194;-94
2023/06/04 11:47:21;;;;;;;8.77;1.83;;;10.80;99.90;;;;;;6118430;23;20575;-95
2023/06/04 11:49:57;;;;;;;7.67;1.63;;;10.80;99.90;;;;;;6115609;23;20183;-95
2023/06/04 11:52:30;;;;;;;8.37;1.90;;;10.80;99.90;;;;;;6087392;23;20210;-95
2023/06/04 11:55:02;;;;;;;7.87;1.63;;;10.80;99.90;;;;;;6109626;23;20254;-94
2023/06/04 11:57:36;;;;;;;7.43;2.10;;;10.80;99.90;;;;;;6101492;23;20267;-93
2023/06/04 12:00:13;;;;;;;8.33;1.60;;;10.90;99.90;;;;;;6108428;23;20175;-94
2023/06/04 12:02:52;;;;;;;8.00;1.80;;;10.90;99.90;;;;;;6114612;23;20217;-95
2023/06/04 12:05:32;;;;;;;9.17;2.10;;;10.90;99.90;;;;;;6110665;23;20179;-94
2023/06/04 12:08:10;;;;;;;7.50;1.77;;;10.80;99.90;;;;;;6100273;23;20511;-94
2023/06/04 12:10:43;;;;;;;5.83;1.97;;;10.80;99.90;;;;;;6101069;23;20207;-94
2023/06/04 12:13:16;;;;;;;8.17;2.00;;;10.80;99.90;;;;;;6100857;23;20167;-93
2023/06/04 12:15:54;;;;;;;9.97;1.80;;;10.80;99.90;;;;;;6100795;23;20184;-95
2023/06/04 12:18:26;;;;;;;7.63;1.83;;;10.90;99.90;;;;;;6099085;23;20194;-93
2023/06/04 12:20:57;;;;;;;7.83;1.90;;;10.90;99.90;;;;;;6100067;23;20230;-93
2023/06/04 12:23:30;;;;;;;5.80;1.50;;;10.90;99.90;;;;;;6100622;23;20266;-96
2023/06/04 12:26:03;;;;;;;7.40;1.70;;;10.80;99.90;;;;;;6099318;23;20254;-95
2023/06/04 12:28:37;;;;;;;7.10;1.87;;;10.90;99.90;;;;;;6099820;23;20179;-94
2023/06/04 12:31:18;;;;;;;6.97;1.70;;;10.90;99.90;;;;;;6110853;23;20231;-95
2023/06/04 12:33:51;;;;;;;6.30;1.50;;;10.90;99.90;;;;;;6119078;23;20242;-94
2023/06/04 12:36:23;;;;;;;6.10;1.53;;;11.00;99.90;;;;;;6120912;23;20194;-93
2023/06/04 12:38:54;;;;;;;7.97;1.70;;;11.10;99.90;;;;;;6118389;23;20171;-93
2023/06/04 12:41:26;;;;;;;7.57;1.87;;;11.10;99.90;;;;;;6105469;23;20250;-94
2023/06/04 12:44:00;;;;;;;11.37;1.70;;;11.10;99.90;;;;;;6099314;23;20250;-94
2023/06/04 12:46:32;;;;;;;6.80;1.77;;;11.10;99.90;;;;;;6098782;23;20183;-94
2023/06/04 12:49:03;;;;;;;4.30;1.70;;;11.10;99.90;;;;;;6101305;23;20258;-92
2023/06/04 12:51:36;;;;;;;7.53;1.63;;;11.10;99.90;;;;;;6104580;23;20205;-96
2023/06/04 12:54:08;;;;;;;7.37;1.50;;;10.90;99.90;;;;;;6101825;23;20262;-94
2023/06/04 12:56:39;;;;;;;4.67;1.43;;;11.00;99.90;;;;;;6102507;23;20190;-93
2023/06/04 12:59:13;;;;;;;6.13;1.27;;;11.00;99.90;;;;;;6102123;23;20177;-93
2023/06/04 13:01:47;;;;;;;11.00;2.23;;;11.10;99.90;;;;;;6116513;23;20214;-93
2023/06/04 13:04:19;;;;;;;6.50;1.67;;;11.10;99.90;;;;;;6115697;23;20206;-94
2023/06/04 13:06:52;;;;;;;6.97;1.53;;;11.20;99.90;;;;;;6083351;23;20214;-93
2023/06/04 13:09:23;;;;;;;8.37;1.70;;;11.20;99.90;;;;;;6102211;23;20671;-93
2023/06/04 13:11:55;;;;;;;8.03;1.83;;;11.30;99.90;;;;;;6101154;23;20588;-95
2023/06/04 13:14:32;;;;;;;4.67;1.43;;;11.20;99.90;;;;;;6100568;23;20171;-93
2023/06/04 13:17:05;;;;;;;8.93;1.60;;;11.20;99.90;;;;;;6102738;23;20164;-96